KNQX/NQX METAR and TAF weather

Enter ICAO airport designator
Station Type Date Time Source
KNQX METAR 2019/12/08 18:53 UTC NOAA

KNQX 081853Z 08011KT 10SM FEW025 28/17 A3008 RMK AO2 SLP186 T02780172 $


Station Type Date Time Source
KNQX Decoded METAR 2019/12/08 18:53 UTC NOAA

KEY WEST NAVAL AIR STATION, FL, United States (KNQX) 24-35N 81-41W 6M
Dec 08, 2019 - 01:53 PM EST / 2019.12.08 1853 UTC
Wind: from the E (080 degrees) at 13 MPH (11 KT):0
Visibility: 10 mile(s):0
Sky conditions: mostly clear
Temperature: 82.0 F (27.8 C)
Dew Point: 63.0 F (17.2 C)
Relative Humidity: 52%
Pressure (altimeter): 30.08 in. Hg (1018 hPa)
ob: KNQX 081853Z 08011KT 10SM FEW025 28/17 A3008 RMK AO2 SLP186 T02780172
cycle: 19

Station Type Date Time Source
KNQX TAF 2019/12/08 15:59 UTC NOAA

TAF COR KNQX 0815/0915 07008KT 9999 FEW030 QNH3003INS
FM082200 09009KT 9999 SCT030 QNH3004INS T27/0819Z T22/0910Z COR 1515 FN20056

Example: see airport list